CheckWX is a tool to help pilots better visualize weather data.  It is not intended as a substitute for an official pre-flight weather briefing.

07:08:24 UTC

PAOM TAF
Nome Airport
Nome, Alaska, USA
PAOM 210523Z 2106/2206 30012KT P6SM SCT015 BKN025 OVC035 FM210900 27006KT P6SM SCT025 BKN035 OVC050

Sep-21@
06:00 UTC

Sep-21 @ 06:00 UTC

Sep-21@
09:00 UTC

Sep-21 @ 09:00 UTC

PAOM 210523Z 2106/2206 30012KT P6SM SCT015 BKN025 OVC035
Wind
  • 300° at 12 KTS
Cloud Levels
  • Scattered at 1,500' AGL
  • Broken at 2,500' AGL
  • Overcast at 3,500' AGL

Sep-21@
09:00 UTC

Sep-21 @ 09:00 UTC

Sep-22@
06:00 UTC

Sep-22 @ 06:00 UTC

FM210900 27006KT P6SM SCT025 BKN035 OVC050

From

From Standard forecast or significant change

Wind
  • 270° at 6 KTS
Cloud Levels
  • Scattered at 2,500' AGL
  • Broken at 3,500' AGL
  • Overcast at 5,000' AGL